ADDS TAF Board (Experimental) INFO Settings
IDs: Format: Expanded Condensed

KCLT - Charlotte/Douglas In, NC, US

Issued at 1741 UTC 29 Jul 2015
Updated at: 1959 UTC 29 Jul 2015
Time1952Z 29/20Z 29/21Z 29/22Z 29/23Z 30/00Z 30/01Z 30/02Z 30/03Z 30/04Z 30/05Z 30/06Z 30/07Z 30/08Z
Type OBS PRVL
  [TEMP]  
PRVL
  [TEMP]  
PRVL PRVL PRVL PRVL PRVL PRVL PRVL PRVL PRVL PRVL PRVL
VIS 10 >6
  [4]  
>6
  [4]  
>6 >6 >6 >6 >6 >6 >6 >6 >6 >6 >6
CIG 95 40
  [30]  
40
  [30]  
40 50 50 50 50 50 50 50 50 50 50
Cover BKN BKN
  [BKN]  
BKN
  [BKN]  
BKN BKN BKN BKN BKN BKN BKN BKN BKN BKN BKN
FltCat VFR VFR
  [MVFR]  
VFR
  [MVFR]  
VFR VFR VFR VFR VFR VFR VFR VFR VFR VFR VFR
WX -- --
  [TSRA]  
--
  [TSRA]  
-- -- -- -- -- -- -- -- -- -- --
WDir 50 190
[VRB]
190
[VRB]
190 VRB VRB VRB VRB VRB VRB VRB VRB VRB VRB
WSpd 6 4
  [10]  
4
  [10]  
4 0 0 0 0 0 0 0 0 0 0
WGst -- --
  [20]  
--
  [20]  
-- -- -- -- -- -- -- -- -- -- --
R05/23
XWnd -0 -2 -2 -2 VRB VRB VRB VRB VRB VRB VRB VRB VRB VRB
XGst -- 0 0 -- -- -- -- -- -- -- -- -- -- --
HWnd 6 -3 -3 -3 VRB VRB VRB VRB VRB VRB VRB VRB VRB VRB
HGst -- 0 0 -- -- -- -- -- -- -- -- -- -- --
R18/36
XWnd 5 -1 -1 -1 VRB VRB VRB VRB VRB VRB VRB VRB VRB VRB
XGst -- 0 0 -- -- -- -- -- -- -- -- -- -- --
HWnd -4 4 4 4 VRB VRB VRB VRB VRB VRB VRB VRB VRB VRB
HGst -- 0 0 -- -- -- -- -- -- -- -- -- -- --

NOTE: TEMPO conditions in [brackets]. Keep in mind TEMPO conditions might be better (lower impact) than prevailing conditions.

Raw TAF
KCLT 291741Z 2918/3018 19004KT P6SM BKN040
  TEMPO 2918/2922 VRB10G20KT 4SM TSRA BKN030CB
  FM292300 00000KT P6SM BKN050
  FM301100 00000KT 5SM BR BKN040
  FM301300 00000KT P6SM SCT020
  FM301500 00000KT P6SM BKN050


Raw METAR
KCLT 291952Z 05006KT 10SM FEW041TCU BKN095 BKN250 32/22 A2998 RMK AO2 SLP141 TCU ALQDS T03170222
KCLT 291852Z 18006KT 10SM SCT034 BKN085 BKN250 32/21 A2999 RMK AO2 SLP145 T03170211
KCLT 291752Z 20004KT 10SM SCT034 BKN250 32/21 A3001 RMK AO2 SLP151 T03170211 10333 20244 58015
KCLT 291652Z 19004KT 10SM SCT030 BKN095 BKN250 31/22 A3003 RMK AO2 SLP157 T03110217

METAR Board
Radar Display
Forecast Discussion

TAF Board Legend

Potential Impact
Threat None Slight Moderate High
Visibility (sm) ≥5.1 5.1>X≥3 3>X≥1 <1
Ceiling (100 ft) ≥30.1 30.1>X≥10 10>X≥5 <5
Wind Speed (kt) <10 10≤X<20 20≤X<30 ≥30
Wind Gust (kt) <15 15≤X<25 25≤X<35 ≥35
Weather No Wx Reported VCTS,-TS,-FZRA,SN TS,FZRA +TS,+FZRA,+SN